sensor_id;sensor_type;location;lat;lon;timestamp;P1;durP1;ratioP1;P2;durP2;ratioP2
13481;SDS011;6813;60.352;15.746;2022-11-11T00:00:36;6.43;;;1.77;;
13481;SDS011;6813;60.352;15.746;2022-11-11T00:03:02;11.37;;;2.43;;
13481;SDS011;6813;60.352;15.746;2022-11-11T00:05:29;7.93;;;2.10;;
13481;SDS011;6813;60.352;15.746;2022-11-11T00:07:57;6.57;;;2.10;;
13481;SDS011;6813;60.352;15.746;2022-11-11T00:10:32;4.33;;;1.50;;
13481;SDS011;6813;60.352;15.746;2022-11-11T00:12:58;6.63;;;1.90;;
13481;SDS011;6813;60.352;15.746;2022-11-11T00:15:25;7.87;;;2.00;;
13481;SDS011;6813;60.352;15.746;2022-11-11T00:17:51;10.43;;;1.97;;
13481;SDS011;6813;60.352;15.746;2022-11-11T00:20:35;7.60;;;2.17;;
13481;SDS011;6813;60.352;15.746;2022-11-11T00:23:21;4.97;;;2.10;;
13481;SDS011;6813;60.352;15.746;2022-11-11T00:26:07;8.97;;;2.00;;
13481;SDS011;6813;60.352;15.746;2022-11-11T00:28:34;5.37;;;2.00;;
13481;SDS011;6813;60.352;15.746;2022-11-11T00:31:04;7.87;;;2.03;;
13481;SDS011;6813;60.352;15.746;2022-11-11T00:33:32;6.73;;;1.90;;
13481;SDS011;6813;60.352;15.746;2022-11-11T00:35:58;6.93;;;2.27;;
13481;SDS011;6813;60.352;15.746;2022-11-11T00:38:24;6.03;;;1.90;;
13481;SDS011;6813;60.352;15.746;2022-11-11T00:41:10;5.53;;;1.90;;
13481;SDS011;6813;60.352;15.746;2022-11-11T00:43:36;7.47;;;2.57;;
13481;SDS011;6813;60.352;15.746;2022-11-11T00:46:02;6.70;;;1.80;;
13481;SDS011;6813;60.352;15.746;2022-11-11T00:48:46;8.07;;;2.10;;
13481;SDS011;6813;60.352;15.746;2022-11-11T00:51:31;6.97;;;2.10;;
13481;SDS011;6813;60.352;15.746;2022-11-11T00:53:56;8.27;;;2.00;;
13481;SDS011;6813;60.352;15.746;2022-11-11T00:56:22;8.23;;;1.83;;
13481;SDS011;6813;60.352;15.746;2022-11-11T00:58:48;7.40;;;2.20;;
13481;SDS011;6813;60.352;15.746;2022-11-11T01:01:14;6.50;;;1.77;;
13481;SDS011;6813;60.352;15.746;2022-11-11T01:03:41;5.13;;;1.60;;
13481;SDS011;6813;60.352;15.746;2022-11-11T01:06:08;9.33;;;2.10;;
13481;SDS011;6813;60.352;15.746;2022-11-11T01:08:35;6.17;;;2.20;;
13481;SDS011;6813;60.352;15.746;2022-11-11T01:11:01;8.73;;;2.37;;
13481;SDS011;6813;60.352;15.746;2022-11-11T01:13:28;5.23;;;1.80;;
13481;SDS011;6813;60.352;15.746;2022-11-11T01:16:00;6.33;;;1.83;;
13481;SDS011;6813;60.352;15.746;2022-11-11T01:18:30;7.03;;;2.40;;
13481;SDS011;6813;60.352;15.746;2022-11-11T01:23:31;4.87;;;1.83;;
13481;SDS011;6813;60.352;15.746;2022-11-11T01:26:06;6.87;;;1.87;;
13481;SDS011;6813;60.352;15.746;2022-11-11T01:28:35;6.87;;;2.27;;
13481;SDS011;6813;60.352;15.746;2022-11-11T01:31:02;6.23;;;1.57;;
13481;SDS011;6813;60.352;15.746;2022-11-11T01:33:32;4.77;;;1.87;;
13481;SDS011;6813;60.352;15.746;2022-11-11T01:36:02;6.60;;;2.60;;
13481;SDS011;6813;60.352;15.746;2022-11-11T01:38:36;6.83;;;1.90;;
13481;SDS011;6813;60.352;15.746;2022-11-11T01:41:03;5.53;;;1.93;;
13481;SDS011;6813;60.352;15.746;2022-11-11T01:43:51;7.80;;;2.20;;
13481;SDS011;6813;60.352;15.746;2022-11-11T01:46:27;6.07;;;2.07;;
13481;SDS011;6813;60.352;15.746;2022-11-11T01:48:59;6.87;;;1.80;;
13481;SDS011;6813;60.352;15.746;2022-11-11T01:51:50;7.67;;;1.70;;
13481;SDS011;6813;60.352;15.746;2022-11-11T01:54:21;7.03;;;2.10;;
13481;SDS011;6813;60.352;15.746;2022-11-11T01:56:58;6.40;;;2.00;;
13481;SDS011;6813;60.352;15.746;2022-11-11T01:59:30;5.93;;;1.97;;
13481;SDS011;6813;60.352;15.746;2022-11-11T02:01:58;4.23;;;1.90;;
13481;SDS011;6813;60.352;15.746;2022-11-11T02:04:25;7.80;;;1.77;;
13481;SDS011;6813;60.352;15.746;2022-11-11T02:07:10;9.10;;;2.00;;
13481;SDS011;6813;60.352;15.746;2022-11-11T02:09:38;5.20;;;1.80;;
13481;SDS011;6813;60.352;15.746;2022-11-11T02:12:07;5.10;;;1.50;;
13481;SDS011;6813;60.352;15.746;2022-11-11T02:14:53;3.57;;;1.40;;
13481;SDS011;6813;60.352;15.746;2022-11-11T02:17:22;3.90;;;1.80;;
13481;SDS011;6813;60.352;15.746;2022-11-11T02:19:51;5.97;;;1.87;;
13481;SDS011;6813;60.352;15.746;2022-11-11T02:22:47;3.37;;;1.23;;
13481;SDS011;6813;60.352;15.746;2022-11-11T02:25:13;5.33;;;1.40;;
13481;SDS011;6813;60.352;15.746;2022-11-11T02:27:43;6.73;;;1.60;;
13481;SDS011;6813;60.352;15.746;2022-11-11T02:30:14;3.87;;;1.50;;
13481;SDS011;6813;60.352;15.746;2022-11-11T02:32:42;5.90;;;1.60;;
13481;SDS011;6813;60.352;15.746;2022-11-11T02:35:15;3.43;;;1.20;;
13481;SDS011;6813;60.352;15.746;2022-11-11T02:38:02;4.30;;;1.37;;
13481;SDS011;6813;60.352;15.746;2022-11-11T02:40:40;5.47;;;1.63;;
13481;SDS011;6813;60.352;15.746;2022-11-11T02:43:27;5.17;;;1.50;;
13481;SDS011;6813;60.352;15.746;2022-11-11T02:45:54;4.90;;;1.50;;
13481;SDS011;6813;60.352;15.746;2022-11-11T02:48:20;5.97;;;1.83;;
13481;SDS011;6813;60.352;15.746;2022-11-11T02:50:46;5.67;;;1.07;;
13481;SDS011;6813;60.352;15.746;2022-11-11T02:53:11;3.00;;;1.43;;
13481;SDS011;6813;60.352;15.746;2022-11-11T02:55:37;5.57;;;1.53;;
13481;SDS011;6813;60.352;15.746;2022-11-11T02:58:03;3.97;;;1.27;;
13481;SDS011;6813;60.352;15.746;2022-11-11T03:00:29;6.43;;;1.63;;
13481;SDS011;6813;60.352;15.746;2022-11-11T03:02:55;4.17;;;1.30;;
13481;SDS011;6813;60.352;15.746;2022-11-11T03:05:21;6.07;;;1.50;;
13481;SDS011;6813;60.352;15.746;2022-11-11T03:07:46;6.03;;;1.50;;
13481;SDS011;6813;60.352;15.746;2022-11-11T03:10:12;4.90;;;1.37;;
13481;SDS011;6813;60.352;15.746;2022-11-11T03:12:38;4.73;;;1.40;;
13481;SDS011;6813;60.352;15.746;2022-11-11T03:15:04;4.23;;;1.20;;
13481;SDS011;6813;60.352;15.746;2022-11-11T03:17:30;4.67;;;1.70;;
13481;SDS011;6813;60.352;15.746;2022-11-11T03:20:14;4.20;;;1.47;;
13481;SDS011;6813;60.352;15.746;2022-11-11T03:23:03;7.50;;;1.87;;
13481;SDS011;6813;60.352;15.746;2022-11-11T03:25:29;4.63;;;2.07;;
13481;SDS011;6813;60.352;15.746;2022-11-11T03:28:02;4.70;;;1.47;;
13481;SDS011;6813;60.352;15.746;2022-11-11T03:30:35;4.10;;;1.63;;
13481;SDS011;6813;60.352;15.746;2022-11-11T03:33:02;3.50;;;1.70;;
13481;SDS011;6813;60.352;15.746;2022-11-11T03:35:28;6.43;;;1.60;;
13481;SDS011;6813;60.352;15.746;2022-11-11T03:37:54;3.07;;;1.33;;
13481;SDS011;6813;60.352;15.746;2022-11-11T03:40:38;6.23;;;1.70;;
13481;SDS011;6813;60.352;15.746;2022-11-11T03:43:04;6.80;;;2.00;;
13481;SDS011;6813;60.352;15.746;2022-11-11T03:45:30;5.83;;;2.17;;
13481;SDS011;6813;60.352;15.746;2022-11-11T03:47:55;8.63;;;2.00;;
13481;SDS011;6813;60.352;15.746;2022-11-11T03:50:22;6.50;;;2.03;;
13481;SDS011;6813;60.352;15.746;2022-11-11T03:52:48;9.67;;;1.87;;
13481;SDS011;6813;60.352;15.746;2022-11-11T03:55:14;5.87;;;1.73;;
13481;SDS011;6813;60.352;15.746;2022-11-11T03:57:42;8.27;;;2.33;;
13481;SDS011;6813;60.352;15.746;2022-11-11T04:00:10;7.83;;;2.30;;
13481;SDS011;6813;60.352;15.746;2022-11-11T04:02:38;7.73;;;2.30;;
13481;SDS011;6813;60.352;15.746;2022-11-11T04:05:22;5.80;;;1.80;;
13481;SDS011;6813;60.352;15.746;2022-11-11T04:08:13;6.73;;;1.57;;
13481;SDS011;6813;60.352;15.746;2022-11-11T04:10:59;7.03;;;1.90;;
13481;SDS011;6813;60.352;15.746;2022-11-11T04:13:29;8.40;;;2.30;;
13481;SDS011;6813;60.352;15.746;2022-11-11T04:16:14;3.77;;;1.70;;
13481;SDS011;6813;60.352;15.746;2022-11-11T04:18:40;6.47;;;2.30;;
13481;SDS011;6813;60.352;15.746;2022-11-11T04:21:24;7.80;;;2.20;;
13481;SDS011;6813;60.352;15.746;2022-11-11T04:24:29;7.77;;;2.10;;
13481;SDS011;6813;60.352;15.746;2022-11-11T04:27:13;6.03;;;1.90;;
13481;SDS011;6813;60.352;15.746;2022-11-11T04:29:40;7.40;;;2.17;;
13481;SDS011;6813;60.352;15.746;2022-11-11T04:34:54;12.07;;;2.60;;
13481;SDS011;6813;60.352;15.746;2022-11-11T04:37:25;5.70;;;1.70;;
13481;SDS011;6813;60.352;15.746;2022-11-11T04:39:52;6.07;;;2.00;;
13481;SDS011;6813;60.352;15.746;2022-11-11T04:42:37;6.90;;;2.03;;
13481;SDS011;6813;60.352;15.746;2022-11-11T04:45:06;11.27;;;2.57;;
13481;SDS011;6813;60.352;15.746;2022-11-11T04:47:57;8.90;;;2.17;;
13481;SDS011;6813;60.352;15.746;2022-11-11T04:50:27;10.27;;;2.23;;
13481;SDS011;6813;60.352;15.746;2022-11-11T04:52:57;9.67;;;2.30;;
13481;SDS011;6813;60.352;15.746;2022-11-11T04:55:23;7.83;;;2.20;;
13481;SDS011;6813;60.352;15.746;2022-11-11T04:58:07;7.93;;;2.23;;
13481;SDS011;6813;60.352;15.746;2022-11-11T05:00:33;7.83;;;2.40;;
13481;SDS011;6813;60.352;15.746;2022-11-11T05:02:59;6.03;;;2.00;;
13481;SDS011;6813;60.352;15.746;2022-11-11T05:05:44;5.28;;;1.92;;
13481;SDS011;6813;60.352;15.746;2022-11-11T05:08:30;5.20;;;2.03;;
13481;SDS011;6813;60.352;15.746;2022-11-11T05:11:14;9.77;;;2.80;;
13481;SDS011;6813;60.352;15.746;2022-11-11T05:13:40;10.30;;;2.60;;
13481;SDS011;6813;60.352;15.746;2022-11-11T05:16:26;7.07;;;2.13;;
13481;SDS011;6813;60.352;15.746;2022-11-11T05:19:13;5.87;;;2.00;;
13481;SDS011;6813;60.352;15.746;2022-11-11T05:22:01;9.93;;;2.57;;
13481;SDS011;6813;60.352;15.746;2022-11-11T05:24:35;6.97;;;2.40;;
13481;SDS011;6813;60.352;15.746;2022-11-11T05:27:19;6.70;;;2.33;;
13481;SDS011;6813;60.352;15.746;2022-11-11T05:29:45;9.30;;;2.23;;
13481;SDS011;6813;60.352;15.746;2022-11-11T05:32:15;8.97;;;2.50;;
13481;SDS011;6813;60.352;15.746;2022-11-11T05:34:45;8.60;;;2.50;;
13481;SDS011;6813;60.352;15.746;2022-11-11T05:37:11;10.30;;;2.30;;
13481;SDS011;6813;60.352;15.746;2022-11-11T05:39:37;10.32;;;2.53;;
13481;SDS011;6813;60.352;15.746;2022-11-11T05:42:02;7.60;;;2.10;;
13481;SDS011;6813;60.352;15.746;2022-11-11T05:44:28;7.40;;;2.38;;
13481;SDS011;6813;60.352;15.746;2022-11-11T05:46:54;9.97;;;2.37;;
13481;SDS011;6813;60.352;15.746;2022-11-11T05:49:20;6.37;;;1.83;;
13481;SDS011;6813;60.352;15.746;2022-11-11T05:51:46;7.97;;;2.67;;
13481;SDS011;6813;60.352;15.746;2022-11-11T05:54:12;6.90;;;2.30;;
13481;SDS011;6813;60.352;15.746;2022-11-11T05:56:38;8.37;;;2.30;;
13481;SDS011;6813;60.352;15.746;2022-11-11T05:59:05;10.07;;;2.90;;
13481;SDS011;6813;60.352;15.746;2022-11-11T06:01:31;8.13;;;2.63;;
13481;SDS011;6813;60.352;15.746;2022-11-11T06:03:57;7.97;;;2.30;;
13481;SDS011;6813;60.352;15.746;2022-11-11T06:06:23;10.33;;;2.93;;
13481;SDS011;6813;60.352;15.746;2022-11-11T06:08:49;8.70;;;2.20;;
13481;SDS011;6813;60.352;15.746;2022-11-11T06:11:15;11.80;;;2.40;;
13481;SDS011;6813;60.352;15.746;2022-11-11T06:13:40;6.87;;;1.93;;
13481;SDS011;6813;60.352;15.746;2022-11-11T06:16:06;8.43;;;2.23;;
13481;SDS011;6813;60.352;15.746;2022-11-11T06:18:32;9.43;;;2.40;;
13481;SDS011;6813;60.352;15.746;2022-11-11T06:20:58;7.33;;;2.20;;
13481;SDS011;6813;60.352;15.746;2022-11-11T06:23:25;11.50;;;2.80;;
13481;SDS011;6813;60.352;15.746;2022-11-11T06:25:52;8.43;;;2.67;;
13481;SDS011;6813;60.352;15.746;2022-11-11T06:28:37;5.40;;;2.03;;
13481;SDS011;6813;60.352;15.746;2022-11-11T06:31:23;7.65;;;2.35;;
13481;SDS011;6813;60.352;15.746;2022-11-11T06:33:51;9.07;;;2.50;;
13481;SDS011;6813;60.352;15.746;2022-11-11T06:36:18;9.43;;;2.30;;
13481;SDS011;6813;60.352;15.746;2022-11-11T06:38:44;9.57;;;2.80;;
13481;SDS011;6813;60.352;15.746;2022-11-11T06:41:10;8.07;;;2.40;;
13481;SDS011;6813;60.352;15.746;2022-11-11T06:43:40;10.80;;;2.03;;
13481;SDS011;6813;60.352;15.746;2022-11-11T06:46:21;11.50;;;2.43;;
13481;SDS011;6813;60.352;15.746;2022-11-11T06:48:48;7.40;;;2.33;;
13481;SDS011;6813;60.352;15.746;2022-11-11T06:51:14;8.73;;;2.33;;
13481;SDS011;6813;60.352;15.746;2022-11-11T06:53:40;9.75;;;2.30;;
13481;SDS011;6813;60.352;15.746;2022-11-11T06:56:06;7.25;;;2.53;;
13481;SDS011;6813;60.352;15.746;2022-11-11T06:58:32;8.57;;;2.40;;
13481;SDS011;6813;60.352;15.746;2022-11-11T07:00:58;12.20;;;3.33;;
13481;SDS011;6813;60.352;15.746;2022-11-11T07:03:28;7.23;;;2.50;;
13481;SDS011;6813;60.352;15.746;2022-11-11T07:05:53;7.73;;;2.70;;
13481;SDS011;6813;60.352;15.746;2022-11-11T07:08:19;9.48;;;1.90;;
13481;SDS011;6813;60.352;15.746;2022-11-11T07:10:46;10.90;;;2.53;;
13481;SDS011;6813;60.352;15.746;2022-11-11T07:13:15;11.60;;;2.70;;
13481;SDS011;6813;60.352;15.746;2022-11-11T07:15:42;12.37;;;3.33;;
13481;SDS011;6813;60.352;15.746;2022-11-11T07:18:08;7.73;;;2.40;;
13481;SDS011;6813;60.352;15.746;2022-11-11T07:20:34;9.87;;;2.37;;
13481;SDS011;6813;60.352;15.746;2022-11-11T07:23:01;7.03;;;2.50;;
13481;SDS011;6813;60.352;15.746;2022-11-11T07:25:27;9.20;;;2.37;;
13481;SDS011;6813;60.352;15.746;2022-11-11T07:27:53;9.47;;;2.87;;
13481;SDS011;6813;60.352;15.746;2022-11-11T07:30:19;8.50;;;2.63;;
13481;SDS011;6813;60.352;15.746;2022-11-11T07:32:48;7.47;;;2.30;;
13481;SDS011;6813;60.352;15.746;2022-11-11T07:35:15;7.83;;;2.50;;
13481;SDS011;6813;60.352;15.746;2022-11-11T07:37:42;7.90;;;2.50;;
13481;SDS011;6813;60.352;15.746;2022-11-11T07:40:09;6.67;;;2.30;;
13481;SDS011;6813;60.352;15.746;2022-11-11T07:42:40;8.45;;;2.67;;
13481;SDS011;6813;60.352;15.746;2022-11-11T07:45:07;8.57;;;3.20;;
13481;SDS011;6813;60.352;15.746;2022-11-11T07:47:34;9.23;;;2.90;;
13481;SDS011;6813;60.352;15.746;2022-11-11T07:50:00;6.77;;;2.30;;
13481;SDS011;6813;60.352;15.746;2022-11-11T07:52:27;9.37;;;2.53;;
13481;SDS011;6813;60.352;15.746;2022-11-11T07:54:52;7.27;;;2.57;;
13481;SDS011;6813;60.352;15.746;2022-11-11T07:57:18;9.67;;;2.20;;
13481;SDS011;6813;60.352;15.746;2022-11-11T07:59:44;9.73;;;2.60;;
13481;SDS011;6813;60.352;15.746;2022-11-11T08:02:11;8.50;;;2.33;;
13481;SDS011;6813;60.352;15.746;2022-11-11T08:04:37;11.80;;;3.00;;
13481;SDS011;6813;60.352;15.746;2022-11-11T08:07:03;10.82;;;2.58;;
13481;SDS011;6813;60.352;15.746;2022-11-11T08:09:29;7.47;;;2.60;;
13481;SDS011;6813;60.352;15.746;2022-11-11T08:11:54;9.60;;;2.90;;
13481;SDS011;6813;60.352;15.746;2022-11-11T08:14:39;12.93;;;3.40;;
13481;SDS011;6813;60.352;15.746;2022-11-11T08:17:05;9.05;;;2.58;;
13481;SDS011;6813;60.352;15.746;2022-11-11T08:19:30;15.50;;;3.30;;
13481;SDS011;6813;60.352;15.746;2022-11-11T08:21:56;9.82;;;2.83;;
13481;SDS011;6813;60.352;15.746;2022-11-11T08:24:22;8.53;;;2.70;;
13481;SDS011;6813;60.352;15.746;2022-11-11T08:26:48;10.50;;;2.97;;
13481;SDS011;6813;60.352;15.746;2022-11-11T08:29:14;8.93;;;2.38;;
13481;SDS011;6813;60.352;15.746;2022-11-11T08:31:39;9.77;;;2.40;;
13481;SDS011;6813;60.352;15.746;2022-11-11T08:34:05;9.77;;;3.15;;
13481;SDS011;6813;60.352;15.746;2022-11-11T08:36:31;11.95;;;2.60;;
13481;SDS011;6813;60.352;15.746;2022-11-11T08:38:58;10.30;;;2.70;;
13481;SDS011;6813;60.352;15.746;2022-11-11T08:41:24;11.10;;;2.78;;
13481;SDS011;6813;60.352;15.746;2022-11-11T08:43:50;13.80;;;3.22;;
13481;SDS011;6813;60.352;15.746;2022-11-11T08:46:17;9.82;;;2.63;;
13481;SDS011;6813;60.352;15.746;2022-11-11T08:48:43;7.90;;;2.47;;
13481;SDS011;6813;60.352;15.746;2022-11-11T08:51:08;7.97;;;2.25;;
13481;SDS011;6813;60.352;15.746;2022-11-11T08:53:34;7.35;;;2.78;;
13481;SDS011;6813;60.352;15.746;2022-11-11T08:56:00;9.57;;;2.47;;
13481;SDS011;6813;60.352;15.746;2022-11-11T08:58:27;10.30;;;2.75;;
13481;SDS011;6813;60.352;15.746;2022-11-11T09:00:53;8.23;;;2.70;;
13481;SDS011;6813;60.352;15.746;2022-11-11T09:03:19;11.48;;;2.58;;
13481;SDS011;6813;60.352;15.746;2022-11-11T09:05:44;8.80;;;2.47;;
13481;SDS011;6813;60.352;15.746;2022-11-11T09:08:11;8.05;;;2.47;;
13481;SDS011;6813;60.352;15.746;2022-11-11T09:10:37;7.82;;;2.80;;
13481;SDS011;6813;60.352;15.746;2022-11-11T09:13:03;9.23;;;2.53;;
13481;SDS011;6813;60.352;15.746;2022-11-11T09:15:30;9.02;;;2.60;;
13481;SDS011;6813;60.352;15.746;2022-11-11T09:17:56;9.80;;;2.55;;
13481;SDS011;6813;60.352;15.746;2022-11-11T09:20:22;9.50;;;2.85;;
13481;SDS011;6813;60.352;15.746;2022-11-11T09:22:48;10.52;;;2.78;;
13481;SDS011;6813;60.352;15.746;2022-11-11T09:25:15;8.50;;;2.70;;
13481;SDS011;6813;60.352;15.746;2022-11-11T09:27:40;6.47;;;2.65;;
13481;SDS011;6813;60.352;15.746;2022-11-11T09:30:08;7.43;;;3.10;;
13481;SDS011;6813;60.352;15.746;2022-11-11T09:32:34;9.43;;;2.77;;
13481;SDS011;6813;60.352;15.746;2022-11-11T09:35:01;12.93;;;3.38;;
13481;SDS011;6813;60.352;15.746;2022-11-11T09:37:27;10.25;;;2.92;;
13481;SDS011;6813;60.352;15.746;2022-11-11T09:39:53;7.68;;;2.65;;
13481;SDS011;6813;60.352;15.746;2022-11-11T09:43:08;11.57;;;2.70;;
13481;SDS011;6813;60.352;15.746;2022-11-11T09:51:08;9.53;;;2.60;;
13481;SDS011;6813;60.352;15.746;2022-11-11T09:53:51;15.32;;;2.67;;
13481;SDS011;6813;60.352;15.746;2022-11-11T09:56:23;8.07;;;2.80;;
13481;SDS011;6813;60.352;15.746;2022-11-11T09:58:58;9.13;;;2.72;;
13481;SDS011;6813;60.352;15.746;2022-11-11T10:01:37;9.00;;;2.70;;
13481;SDS011;6813;60.352;15.746;2022-11-11T10:04:19;10.10;;;3.05;;
13481;SDS011;6813;60.352;15.746;2022-11-11T10:07:33;9.32;;;2.35;;
13481;SDS011;6813;60.352;15.746;2022-11-11T10:12:52;10.43;;;2.83;;
13481;SDS011;6813;60.352;15.746;2022-11-11T10:15:21;8.18;;;2.80;;
13481;SDS011;6813;60.352;15.746;2022-11-11T10:20:28;6.68;;;2.30;;
13481;SDS011;6813;60.352;15.746;2022-11-11T10:23:04;8.10;;;2.70;;
13481;SDS011;6813;60.352;15.746;2022-11-11T10:26:00;10.95;;;2.88;;
13481;SDS011;6813;60.352;15.746;2022-11-11T10:28:32;6.85;;;2.33;;
13481;SDS011;6813;60.352;15.746;2022-11-11T10:31:01;11.48;;;2.85;;
13481;SDS011;6813;60.352;15.746;2022-11-11T10:33:35;7.15;;;2.20;;
13481;SDS011;6813;60.352;15.746;2022-11-11T10:36:08;12.52;;;2.67;;
13481;SDS011;6813;60.352;15.746;2022-11-11T10:38:45;11.63;;;2.72;;
13481;SDS011;6813;60.352;15.746;2022-11-11T10:44:42;9.93;;;2.80;;
13481;SDS011;6813;60.352;15.746;2022-11-11T10:47:04;8.32;;;2.47;;
13481;SDS011;6813;60.352;15.746;2022-11-11T10:50:06;9.57;;;2.40;;
13481;SDS011;6813;60.352;15.746;2022-11-11T10:52:38;7.30;;;2.85;;
13481;SDS011;6813;60.352;15.746;2022-11-11T10:55:21;10.15;;;2.75;;
13481;SDS011;6813;60.352;15.746;2022-11-11T10:58:39;9.70;;;2.58;;
13481;SDS011;6813;60.352;15.746;2022-11-11T11:00:39;8.93;;;2.60;;
13481;SDS011;6813;60.352;15.746;2022-11-11T11:05:46;12.30;;;2.95;;
13481;SDS011;6813;60.352;15.746;2022-11-11T11:08:23;9.50;;;2.40;;
13481;SDS011;6813;60.352;15.746;2022-11-11T11:10:54;8.35;;;2.58;;
13481;SDS011;6813;60.352;15.746;2022-11-11T11:15:57;8.02;;;2.78;;
13481;SDS011;6813;60.352;15.746;2022-11-11T11:18:29;11.82;;;2.75;;
13481;SDS011;6813;60.352;15.746;2022-11-11T11:23:44;10.25;;;2.97;;
13481;SDS011;6813;60.352;15.746;2022-11-11T11:26:10;9.77;;;2.88;;
13481;SDS011;6813;60.352;15.746;2022-11-11T11:29:11;6.80;;;2.35;;
13481;SDS011;6813;60.352;15.746;2022-11-11T11:31:37;8.00;;;2.60;;
13481;SDS011;6813;60.352;15.746;2022-11-11T11:34:04;9.18;;;2.63;;
13481;SDS011;6813;60.352;15.746;2022-11-11T11:36:30;7.97;;;2.63;;
13481;SDS011;6813;60.352;15.746;2022-11-11T11:38:56;9.90;;;2.47;;
13481;SDS011;6813;60.352;15.746;2022-11-11T11:41:35;8.40;;;2.30;;
13481;SDS011;6813;60.352;15.746;2022-11-11T11:44:24;7.45;;;2.70;;
13481;SDS011;6813;60.352;15.746;2022-11-11T11:55:21;7.82;;;2.60;;
13481;SDS011;6813;60.352;15.746;2022-11-11T12:00:28;9.02;;;2.67;;
13481;SDS011;6813;60.352;15.746;2022-11-11T12:05:33;11.75;;;2.47;;
13481;SDS011;6813;60.352;15.746;2022-11-11T12:10:57;12.65;;;3.00;;
13481;SDS011;6813;60.352;15.746;2022-11-11T12:13:40;7.53;;;2.38;;
13481;SDS011;6813;60.352;15.746;2022-11-11T12:19:30;12.77;;;2.80;;
13481;SDS011;6813;60.352;15.746;2022-11-11T12:22:24;7.07;;;2.60;;
13481;SDS011;6813;60.352;15.746;2022-11-11T12:30:22;8.15;;;2.35;;
13481;SDS011;6813;60.352;15.746;2022-11-11T12:36:06;7.75;;;2.40;;
13481;SDS011;6813;60.352;15.746;2022-11-11T12:42:00;9.80;;;2.40;;
13481;SDS011;6813;60.352;15.746;2022-11-11T12:44:43;9.60;;;2.90;;
13481;SDS011;6813;60.352;15.746;2022-11-11T12:47:33;9.77;;;2.58;;
13481;SDS011;6813;60.352;15.746;2022-11-11T13:01:32;11.27;;;2.47;;
13481;SDS011;6813;60.352;15.746;2022-11-11T13:10:15;8.77;;;2.60;;
13481;SDS011;6813;60.352;15.746;2022-11-11T13:12:48;7.63;;;2.30;;
13481;SDS011;6813;60.352;15.746;2022-11-11T13:15:35;10.95;;;2.83;;
13481;SDS011;6813;60.352;15.746;2022-11-11T13:18:01;8.43;;;2.72;;
13481;SDS011;6813;60.352;15.746;2022-11-11T13:20:55;7.93;;;2.45;;
13481;SDS011;6813;60.352;15.746;2022-11-11T13:23:23;7.72;;;2.22;;
13481;SDS011;6813;60.352;15.746;2022-11-11T13:25:52;9.77;;;2.78;;
13481;SDS011;6813;60.352;15.746;2022-11-11T13:28:23;9.38;;;3.10;;
13481;SDS011;6813;60.352;15.746;2022-11-11T13:31:17;11.52;;;3.00;;
13481;SDS011;6813;60.352;15.746;2022-11-11T13:33:49;7.82;;;2.40;;
13481;SDS011;6813;60.352;15.746;2022-11-11T13:36:19;8.27;;;2.60;;
13481;SDS011;6813;60.352;15.746;2022-11-11T13:38:49;8.43;;;2.35;;
13481;SDS011;6813;60.352;15.746;2022-11-11T13:41:22;7.15;;;2.40;;
13481;SDS011;6813;60.352;15.746;2022-11-11T13:43:55;10.55;;;4.30;;
13481;SDS011;6813;60.352;15.746;2022-11-11T13:48:52;12.48;;;2.60;;
13481;SDS011;6813;60.352;15.746;2022-11-11T13:51:39;9.05;;;2.67;;
13481;SDS011;6813;60.352;15.746;2022-11-11T13:56:52;8.30;;;2.58;;
13481;SDS011;6813;60.352;15.746;2022-11-11T13:59:26;12.32;;;3.25;;
13481;SDS011;6813;60.352;15.746;2022-11-11T14:02:11;8.52;;;2.58;;
13481;SDS011;6813;60.352;15.746;2022-11-11T14:25:42;8.90;;;2.67;;
13481;SDS011;6813;60.352;15.746;2022-11-11T14:28:23;9.18;;;2.97;;
13481;SDS011;6813;60.352;15.746;2022-11-11T14:30:55;7.80;;;2.85;;
13481;SDS011;6813;60.352;15.746;2022-11-11T14:33:45;9.25;;;2.70;;
13481;SDS011;6813;60.352;15.746;2022-11-11T14:42:40;7.20;;;2.42;;
13481;SDS011;6813;60.352;15.746;2022-11-11T14:44:59;9.60;;;2.97;;
13481;SDS011;6813;60.352;15.746;2022-11-11T14:50:51;8.93;;;2.95;;
13481;SDS011;6813;60.352;15.746;2022-11-11T14:52:52;7.30;;;2.67;;
13481;SDS011;6813;60.352;15.746;2022-11-11T14:55:31;11.85;;;3.20;;
13481;SDS011;6813;60.352;15.746;2022-11-11T14:58:09;10.98;;;2.55;;
13481;SDS011;6813;60.352;15.746;2022-11-11T15:03:24;7.75;;;2.63;;
13481;SDS011;6813;60.352;15.746;2022-11-11T15:06:04;6.85;;;2.35;;
13481;SDS011;6813;60.352;15.746;2022-11-11T15:16:54;11.15;;;2.70;;
13481;SDS011;6813;60.352;15.746;2022-11-11T15:27:50;9.05;;;3.05;;
13481;SDS011;6813;60.352;15.746;2022-11-11T15:30:21;11.75;;;3.00;;
13481;SDS011;6813;60.352;15.746;2022-11-11T15:37:57;8.05;;;2.88;;
13481;SDS011;6813;60.352;15.746;2022-11-11T15:40:46;9.13;;;2.67;;
13481;SDS011;6813;60.352;15.746;2022-11-11T15:45:43;10.95;;;4.20;;
13481;SDS011;6813;60.352;15.746;2022-11-11T15:48:14;8.27;;;2.70;;
13481;SDS011;6813;60.352;15.746;2022-11-11T15:50:43;10.82;;;2.88;;
13481;SDS011;6813;60.352;15.746;2022-11-11T15:53:10;10.70;;;4.57;;
13481;SDS011;6813;60.352;15.746;2022-11-11T15:55:37;12.52;;;3.42;;
13481;SDS011;6813;60.352;15.746;2022-11-11T15:58:08;9.40;;;3.30;;
13481;SDS011;6813;60.352;15.746;2022-11-11T16:00:41;11.88;;;2.78;;
13481;SDS011;6813;60.352;15.746;2022-11-11T16:03:13;10.38;;;3.03;;
13481;SDS011;6813;60.352;15.746;2022-11-11T16:06:03;9.52;;;2.72;;
13481;SDS011;6813;60.352;15.746;2022-11-11T16:08:33;9.02;;;3.08;;
13481;SDS011;6813;60.352;15.746;2022-11-11T16:10:59;10.68;;;3.78;;
13481;SDS011;6813;60.352;15.746;2022-11-11T16:13:33;11.60;;;3.83;;
13481;SDS011;6813;60.352;15.746;2022-11-11T16:16:05;11.68;;;3.05;;
13481;SDS011;6813;60.352;15.746;2022-11-11T16:18:48;8.85;;;2.97;;
13481;SDS011;6813;60.352;15.746;2022-11-11T16:21:23;11.05;;;2.72;;
13481;SDS011;6813;60.352;15.746;2022-11-11T16:23:59;8.77;;;3.08;;
13481;SDS011;6813;60.352;15.746;2022-11-11T16:26:27;9.52;;;3.03;;
13481;SDS011;6813;60.352;15.746;2022-11-11T16:28:57;9.75;;;3.15;;
13481;SDS011;6813;60.352;15.746;2022-11-11T16:33:58;7.88;;;2.22;;
13481;SDS011;6813;60.352;15.746;2022-11-11T16:36:24;9.63;;;2.97;;
13481;SDS011;6813;60.352;15.746;2022-11-11T16:38:50;6.47;;;2.60;;
13481;SDS011;6813;60.352;15.746;2022-11-11T16:41:26;9.63;;;3.45;;
13481;SDS011;6813;60.352;15.746;2022-11-11T16:43:55;9.45;;;2.70;;
13481;SDS011;6813;60.352;15.746;2022-11-11T16:49:42;6.80;;;2.50;;
13481;SDS011;6813;60.352;15.746;2022-11-11T16:51:48;8.30;;;3.10;;
13481;SDS011;6813;60.352;15.746;2022-11-11T16:54:18;7.00;;;2.83;;
13481;SDS011;6813;60.352;15.746;2022-11-11T16:56:50;8.00;;;2.50;;
13481;SDS011;6813;60.352;15.746;2022-11-11T16:59:20;10.15;;;3.10;;
13481;SDS011;6813;60.352;15.746;2022-11-11T17:01:47;7.00;;;2.28;;
13481;SDS011;6813;60.352;15.746;2022-11-11T17:04:12;10.73;;;3.10;;
13481;SDS011;6813;60.352;15.746;2022-11-11T17:06:52;9.00;;;2.45;;
13481;SDS011;6813;60.352;15.746;2022-11-11T17:09:32;12.10;;;3.55;;
13481;SDS011;6813;60.352;15.746;2022-11-11T17:12:03;7.75;;;2.83;;
13481;SDS011;6813;60.352;15.746;2022-11-11T17:14:32;8.65;;;2.78;;
13481;SDS011;6813;60.352;15.746;2022-11-11T17:17:00;9.27;;;2.45;;
13481;SDS011;6813;60.352;15.746;2022-11-11T17:19:26;8.80;;;2.53;;
13481;SDS011;6813;60.352;15.746;2022-11-11T17:22:03;11.95;;;2.88;;
13481;SDS011;6813;60.352;15.746;2022-11-11T17:24:33;8.80;;;2.67;;
13481;SDS011;6813;60.352;15.746;2022-11-11T17:26:59;7.32;;;2.75;;
13481;SDS011;6813;60.352;15.746;2022-11-11T17:29:24;11.68;;;2.90;;
13481;SDS011;6813;60.352;15.746;2022-11-11T17:31:50;8.60;;;3.25;;
13481;SDS011;6813;60.352;15.746;2022-11-11T17:34:16;9.10;;;3.00;;
13481;SDS011;6813;60.352;15.746;2022-11-11T17:36:41;11.00;;;2.83;;